Indianapolis, Iowa
Current Conditions -  °F | °C
As of 1:35 PM on Monday 20 Oct 2014 (Local Time) from KOOA Reporting Station
Clear Clear  
Wind Chill: 68°   Ceiling: Unl
Heat Index: 68°   Visibility: 10mi
Dew Point: 42°   Wind: 14mph
Humidity: 38%   Direction: 350°N
Pressure: 29.99"   Gusts: 18mph
Location:  41.3798°N, 92.3541°W
Report Text: KOOA 201835Z AUTO 35012G16KT 10SM CLR 20/05 A2999 RMK AO2 T02000053
Loading
Personal Weather Stations






























Interactive Weather Map
Tropical Storm Tracking
New forecast layout! Learn more

10-Day Weather Forecast

Advertisements
Track Severe Weather on mobile